createdAt,value
2023-02-11T00:01:54.036Z,34.88
2023-02-11T00:04:39.539Z,31.33
2023-02-11T00:07:24.898Z,33.65
2023-02-11T00:10:10.497Z,35.55
2023-02-11T00:12:56.280Z,34.10
2023-02-11T00:15:41.798Z,34.35
2023-02-11T00:18:28.054Z,32.90
2023-02-11T00:21:15.697Z,32.72
2023-02-11T00:24:02.189Z,33.17
2023-02-11T00:26:47.833Z,34.33
2023-02-11T00:29:32.987Z,33.05
2023-02-11T00:32:18.567Z,32.72
2023-02-11T00:35:03.735Z,33.00
2023-02-11T00:37:53.727Z,33.00
2023-02-11T00:40:38.860Z,31.00
2023-02-11T00:43:23.919Z,32.42
2023-02-11T00:46:09.921Z,29.60
2023-02-11T00:48:57.693Z,32.38
2023-02-11T00:51:43.112Z,32.65
2023-02-11T00:54:30.006Z,32.45
2023-02-11T00:57:15.436Z,32.13
2023-02-11T01:00:00.963Z,32.70
2023-02-11T01:02:46.279Z,31.88
2023-02-11T01:05:31.938Z,32.05
2023-02-11T01:08:17.272Z,33.67
2023-02-11T01:11:06.513Z,32.38
2023-02-11T01:13:51.848Z,32.97
2023-02-11T01:16:37.363Z,32.53
2023-02-11T01:19:23.582Z,31.70
2023-02-11T01:22:09.213Z,31.35
2023-02-11T01:24:54.475Z,30.95
2023-02-11T01:27:40.225Z,30.40
2023-02-11T01:30:25.463Z,30.55
2023-02-11T01:33:10.711Z,31.15
2023-02-11T01:35:56.034Z,31.73
2023-02-11T01:38:41.454Z,31.05
2023-02-11T01:41:26.887Z,31.80
2023-02-11T01:44:26.249Z,31.35
2023-02-11T01:47:11.582Z,30.73
2023-02-11T01:50:01.540Z,29.92
2023-02-11T01:52:48.685Z,33.00
2023-02-11T01:55:52.750Z,31.05
2023-02-11T01:58:41.455Z,30.30
2023-02-11T02:01:28.957Z,30.80
2023-02-11T02:04:18.738Z,30.00
2023-02-11T02:07:10.654Z,31.27
2023-02-11T02:10:03.264Z,31.58
2023-02-11T02:12:48.545Z,29.92
2023-02-11T02:15:39.697Z,31.25
2023-02-11T02:18:48.745Z,30.48
2023-02-11T02:22:25.042Z,30.77
2023-02-11T02:25:31.719Z,31.88
2023-02-11T02:28:39.121Z,31.95
2023-02-11T02:31:53.110Z,31.75
2023-02-11T02:34:49.915Z,31.25
2023-02-11T02:38:17.071Z,34.65
2023-02-11T02:41:13.627Z,32.67
2023-02-11T02:43:59.271Z,32.28
2023-02-11T02:46:44.695Z,33.72
2023-02-11T02:49:29.986Z,32.97
2023-02-11T02:52:51.564Z,33.75
2023-02-11T02:55:57.491Z,32.72
2023-02-11T02:59:02.305Z,33.97
2023-02-11T03:02:13.538Z,32.33
2023-02-11T03:05:01.996Z,33.85
2023-02-11T03:07:47.354Z,33.90
2023-02-11T03:10:36.474Z,34.65
2023-02-11T03:13:29.360Z,36.72
2023-02-11T03:16:22.758Z,37.20
2023-02-11T03:19:22.414Z,34.33
2023-02-11T03:22:16.964Z,33.83
2023-02-11T03:25:02.960Z,35.17
2023-02-11T03:27:57.571Z,33.63
2023-02-11T03:30:53.406Z,35.50
2023-02-11T03:33:53.822Z,35.33
2023-02-11T03:36:46.054Z,35.28
2023-02-11T03:39:37.766Z,34.95
2023-02-11T03:42:28.813Z,36.05
2023-02-11T03:45:17.229Z,35.50
2023-02-11T03:48:12.613Z,36.93
2023-02-11T03:51:01.487Z,37.25
2023-02-11T03:53:48.219Z,35.37
2023-02-11T03:56:48.953Z,35.47
2023-02-11T03:59:53.969Z,36.53
2023-02-11T04:02:40.694Z,37.10
2023-02-11T04:05:26.315Z,36.08
2023-02-11T04:08:11.664Z,34.75
2023-02-11T04:10:57.101Z,35.90
2023-02-11T04:13:42.441Z,35.83
2023-02-11T04:16:28.135Z,37.80
2023-02-11T04:19:13.296Z,39.25
2023-02-11T04:21:59.269Z,37.72
2023-02-11T04:24:44.656Z,34.45
2023-02-11T04:27:30.158Z,37.63
2023-02-11T04:30:15.286Z,39.75
2023-02-11T04:33:00.261Z,37.65
2023-02-11T04:35:45.748Z,37.08
2023-02-11T04:38:31.175Z,38.55
2023-02-11T04:41:16.665Z,37.60
2023-02-11T04:44:02.036Z,39.50
2023-02-11T04:46:47.486Z,40.50
2023-02-11T04:49:33.042Z,39.63
2023-02-11T04:52:18.248Z,37.70
2023-02-11T04:55:04.158Z,40.80
2023-02-11T04:57:49.601Z,40.50
2023-02-11T05:00:35.065Z,40.40
2023-02-11T05:03:20.556Z,38.47
2023-02-11T05:06:06.639Z,39.85
2023-02-11T05:08:51.948Z,40.63
2023-02-11T05:11:39.288Z,40.63
2023-02-11T05:14:24.451Z,40.50
2023-02-11T05:17:09.929Z,42.38
2023-02-11T05:19:55.496Z,42.63
2023-02-11T05:22:40.709Z,41.55
2023-02-11T05:25:26.060Z,39.97
2023-02-11T05:28:11.275Z,41.22
2023-02-11T05:30:56.744Z,45.03
2023-02-11T05:33:42.267Z,41.25
2023-02-11T05:36:27.604Z,43.45
2023-02-11T05:39:12.881Z,43.38
2023-02-11T05:41:58.458Z,43.80
2023-02-11T05:44:43.785Z,42.05
2023-02-11T05:47:29.331Z,44.85
2023-02-11T05:50:14.768Z,42.80
2023-02-11T05:53:00.013Z,43.58
2023-02-11T05:55:45.978Z,45.75
2023-02-11T05:58:32.213Z,43.20
2023-02-11T06:01:17.669Z,45.60
2023-02-11T06:04:02.892Z,44.20
2023-02-11T06:06:48.320Z,44.22
2023-02-11T06:09:33.498Z,46.08
2023-02-11T06:12:18.845Z,47.00
2023-02-11T06:15:05.583Z,45.20
2023-02-11T06:17:50.895Z,46.72
2023-02-11T06:20:37.144Z,43.28
2023-02-11T06:23:22.666Z,47.17
2023-02-11T06:26:10.540Z,45.17
2023-02-11T06:28:55.903Z,44.08
2023-02-11T06:31:41.537Z,46.20
2023-02-11T06:34:26.637Z,46.85
2023-02-11T06:37:11.946Z,47.03
2023-02-11T06:39:57.162Z,45.75
2023-02-11T06:42:42.532Z,46.08
2023-02-11T06:45:27.594Z,47.35
2023-02-11T06:48:12.951Z,47.13
2023-02-11T06:51:02.864Z,44.50
2023-02-11T06:53:48.942Z,49.45
2023-02-11T06:56:34.759Z,47.60
2023-02-11T06:59:20.752Z,47.42
2023-02-11T07:02:06.118Z,49.88
2023-02-11T07:04:51.570Z,48.40
2023-02-11T07:07:37.594Z,46.35
2023-02-11T07:10:22.878Z,47.15
2023-02-11T07:13:08.282Z,48.45
2023-02-11T07:15:53.650Z,46.92
2023-02-11T07:18:38.769Z,49.40
2023-02-11T07:21:24.395Z,48.70
2023-02-11T07:24:11.169Z,48.38
2023-02-11T07:26:56.614Z,48.10
2023-02-11T07:29:43.452Z,50.25
2023-02-11T07:32:28.559Z,48.05
2023-02-11T07:35:14.731Z,47.05
2023-02-11T07:37:59.757Z,46.80
2023-02-11T07:40:45.238Z,46.60
2023-02-11T07:43:31.700Z,46.95
2023-02-11T07:46:20.330Z,48.20
2023-02-11T07:49:05.316Z,49.00
2023-02-11T07:51:51.459Z,47.25
2023-02-11T07:54:36.733Z,45.80
2023-02-11T07:57:22.013Z,46.20
2023-02-11T08:00:07.346Z,46.75
2023-02-11T08:02:59.177Z,47.65
2023-02-11T08:05:44.323Z,45.90
2023-02-11T08:08:29.696Z,46.88
2023-02-11T08:11:20.770Z,45.10
2023-02-11T08:14:06.191Z,45.22
2023-02-11T08:16:51.833Z,45.72
2023-02-11T08:19:37.051Z,45.08
2023-02-11T08:22:22.555Z,45.95
2023-02-11T08:25:08.170Z,44.90
2023-02-11T08:27:53.328Z,46.22
2023-02-11T08:30:38.601Z,45.88
2023-02-11T08:33:23.991Z,44.28
2023-02-11T08:36:21.527Z,44.70
2023-02-11T08:39:19.298Z,44.78
2023-02-11T08:42:05.350Z,43.33
2023-02-11T08:44:50.557Z,45.80
2023-02-11T08:47:37.062Z,45.65
2023-02-11T08:50:22.416Z,44.58
2023-02-11T08:53:08.197Z,44.50
2023-02-11T08:55:55.275Z,42.28
2023-02-11T08:58:40.884Z,41.17
2023-02-11T09:01:29.622Z,44.65
2023-02-11T09:04:15.068Z,46.30
2023-02-11T09:07:00.561Z,44.67
2023-02-11T09:09:45.748Z,41.35
2023-02-11T09:12:31.013Z,42.70
2023-02-11T09:15:16.572Z,42.92
2023-02-11T09:18:02.619Z,41.03
2023-02-11T09:20:47.838Z,40.55
2023-02-11T09:23:34.529Z,40.17
2023-02-11T09:26:24.825Z,41.92
2023-02-11T09:29:10.117Z,41.40
2023-02-11T09:31:55.630Z,41.08
2023-02-11T09:34:40.987Z,40.53
2023-02-11T09:37:26.562Z,40.55
2023-02-11T09:40:14.605Z,40.22
2023-02-11T09:43:05.903Z,40.33
2023-02-11T09:45:54.880Z,40.85
2023-02-11T09:48:42.812Z,39.87
2023-02-11T09:51:45.299Z,41.63
2023-02-11T09:54:35.090Z,40.15
2023-02-11T10:00:48.454Z,38.25
2023-02-11T10:03:39.752Z,39.83
2023-02-11T10:06:37.091Z,39.10
2023-02-11T10:09:40.889Z,38.60
2023-02-11T10:12:58.845Z,38.58
2023-02-11T10:16:13.800Z,40.80
2023-02-11T10:19:09.666Z,38.40
2023-02-11T10:22:40.107Z,36.88
2023-02-11T10:25:26.976Z,37.53
2023-02-11T10:28:18.652Z,38.55
2023-02-11T10:31:11.384Z,39.42
2023-02-11T10:34:07.061Z,37.45
2023-02-11T10:36:52.381Z,38.60
2023-02-11T10:39:39.890Z,37.70
2023-02-11T10:42:25.864Z,38.75
2023-02-11T10:45:19.296Z,38.35
2023-02-11T10:48:09.005Z,36.78
2023-02-11T10:51:08.703Z,36.72
2023-02-11T10:54:08.206Z,37.53
2023-02-11T10:56:59.521Z,37.08
2023-02-11T10:59:45.043Z,37.47
2023-02-11T11:02:34.701Z,38.22
2023-02-11T11:05:24.317Z,39.10
2023-02-11T11:08:09.661Z,37.17
2023-02-11T11:11:05.144Z,38.22
2023-02-11T11:13:53.429Z,40.17
2023-02-11T11:16:38.854Z,38.80
2023-02-11T11:19:25.913Z,37.20
2023-02-11T11:22:22.091Z,36.25
2023-02-11T11:25:22.322Z,33.78
2023-02-11T11:28:25.428Z,33.30
2023-02-11T11:31:28.968Z,34.03
2023-02-11T11:34:32.302Z,34.25
2023-02-11T11:37:43.993Z,34.10
2023-02-11T11:40:34.604Z,33.35
2023-02-11T11:43:23.873Z,31.80
2023-02-11T11:46:12.214Z,34.08
2023-02-11T11:49:23.225Z,31.67
2023-02-11T11:52:18.202Z,33.15
2023-02-11T11:55:33.071Z,32.20
2023-02-11T11:58:21.525Z,30.20
2023-02-11T12:01:10.023Z,30.42
2023-02-11T12:04:14.140Z,29.77
2023-02-11T12:07:26.029Z,29.17
2023-02-11T12:10:14.314Z,29.45
2023-02-11T12:13:23.399Z,27.58
2023-02-11T12:16:33.722Z,26.45
2023-02-11T12:19:46.703Z,27.05
2023-02-11T12:23:09.235Z,25.92
2023-02-11T12:26:17.746Z,26.90
2023-02-11T12:29:36.620Z,25.65
2023-02-11T12:32:43.263Z,26.65
2023-02-11T12:35:37.003Z,26.73
2023-02-11T12:39:02.013Z,25.88
2023-02-11T12:42:09.405Z,23.48
2023-02-11T12:45:13.963Z,24.52
2023-02-11T12:48:05.233Z,25.20
2023-02-11T12:50:56.891Z,22.33
2023-02-11T12:54:11.921Z,24.83
2023-02-11T12:57:11.101Z,24.10
2023-02-11T13:00:02.838Z,23.55
2023-02-11T13:02:54.504Z,23.35
2023-02-11T13:05:54.085Z,22.63
2023-02-11T13:08:49.305Z,21.42
2023-02-11T13:11:43.161Z,24.15
2023-02-11T13:14:35.279Z,22.30
2023-02-11T13:17:29.913Z,23.95
2023-02-11T13:20:30.209Z,22.17
2023-02-11T13:23:31.694Z,23.90
2023-02-11T13:26:24.533Z,23.23
2023-02-11T13:29:30.370Z,22.13
2023-02-11T13:32:16.109Z,23.40
2023-02-11T13:35:02.087Z,22.38
2023-02-11T13:37:48.015Z,21.75
2023-02-11T13:40:39.242Z,20.63
2023-02-11T13:43:30.010Z,21.55
2023-02-11T13:46:15.851Z,20.38
2023-02-11T13:49:01.009Z,21.90
2023-02-11T13:51:47.378Z,22.08
2023-02-11T13:54:38.926Z,21.95
2023-02-11T13:57:32.181Z,20.08
2023-02-11T14:00:32.799Z,21.17
2023-02-11T14:03:46.267Z,21.25
2023-02-11T14:06:50.131Z,21.85
2023-02-11T14:09:38.729Z,20.30
2023-02-11T14:12:31.475Z,19.97
2023-02-11T14:15:20.399Z,20.58
2023-02-11T14:18:37.218Z,21.50
2023-02-11T14:21:26.185Z,20.27
2023-02-11T14:24:11.570Z,21.20
2023-02-11T14:27:28.150Z,21.30
2023-02-11T14:30:26.862Z,20.65
2023-02-11T14:33:40.236Z,21.15
2023-02-11T14:36:43.650Z,20.33
2023-02-11T14:39:40.934Z,19.75
2023-02-11T14:42:29.607Z,19.98
2023-02-11T14:45:21.180Z,19.35
2023-02-11T14:48:16.086Z,19.90
2023-02-11T14:51:19.529Z,18.25
2023-02-11T14:54:18.955Z,18.38
2023-02-11T14:57:16.095Z,17.55
2023-02-11T15:00:19.634Z,16.13
2023-02-11T15:03:05.226Z,17.30
2023-02-11T15:05:55.756Z,18.23
2023-02-11T15:08:52.153Z,17.70
2023-02-11T15:11:43.338Z,16.95
2023-02-11T15:14:32.975Z,16.83
2023-02-11T15:20:13.493Z,16.63
2023-02-11T15:23:01.211Z,16.52
2023-02-11T15:25:52.555Z,17.02
2023-02-11T15:28:38.093Z,16.27
2023-02-11T15:31:25.839Z,17.80
2023-02-11T15:34:14.423Z,15.93
2023-02-11T15:36:59.729Z,16.37
2023-02-11T15:39:45.046Z,16.65
2023-02-11T15:42:40.780Z,15.60
2023-02-11T15:45:36.207Z,15.82
2023-02-11T15:48:26.660Z,16.70
2023-02-11T15:51:28.677Z,15.27
2023-02-11T15:54:24.063Z,14.63
2023-02-11T15:57:10.339Z,14.98
2023-02-11T16:00:04.253Z,15.40
2023-02-11T16:02:57.470Z,15.18
2023-02-11T16:05:42.670Z,15.07
2023-02-11T16:08:29.993Z,14.95
2023-02-11T16:11:26.178Z,13.98
2023-02-11T16:14:29.838Z,14.15
2023-02-11T16:17:17.980Z,26.00
2023-02-11T16:20:03.908Z,15.10
2023-02-11T16:22:49.121Z,15.00
2023-02-11T16:25:37.690Z,15.20
2023-02-11T16:28:23.307Z,13.27
2023-02-11T16:31:09.610Z,13.05
2023-02-11T16:33:54.580Z,13.18
2023-02-11T16:36:40.120Z,11.85
2023-02-11T16:39:25.414Z,12.52
2023-02-11T16:42:13.878Z,10.68
2023-02-11T16:45:00.195Z,11.43
2023-02-11T16:47:46.104Z,12.32
